Delta Virtual Airport Information Service

San Diego International Airport

ICAO: KSAN Country: United States
Latitude: 32.7336 Longitude: -117.189
Latest Arrival : DAL865 (1B) (KSLC-KSAN) Latest Departure : AAL596 (B) (KSAN-KCLT)


WX CaptureLIVE
Data provided by noaa.gov | Fetched at 00:57:07

METAR : KSAN 120451Z 29004KT 10SM FEW016 17/12 A2999 RMK AO2 SLP154 T01670117

TAF : KSAN 120413Z 1204/1306 VRB04KT P6SM OVC015 FM122000 27009KT P6SM SCT015 FM130300 VRB04KT P6SM OVC015


Runway Data for KSAN
Data provided by openaviationdata.com

Runway ID Mag Var Hdg Length Elevation Surface ILS Freq ILS Id ILS Slope
9 13 92° 9394 ft 15 ft Concrete 110.9 ISAN 3
27 13 272° 9394 ft 15 ft Concrete 110.9 IUBR 0

San Diego International Airport, United States
Use only for reference purposes



Not for navigational purposes.